Time;durP1;ratioP1;P1;durP2;ratioP2;P2;SDS_P1;SDS_P2;PMS_P1;PMS_P2;Temp;Humidity;BMP_temperature;BMP_pressure;BME280_temperature;BME280_humidity;BME280_pressure;Samples;Min_cycle;Max_cycle;Signal;HPM_P1;HPM_P2
2024/04/01 00:01:38;;;;;;;;;;;;;;;16.60;46.09;98751.50;4934654;27;98053;-70
2024/04/01 00:04:08;;;;;;;;;;;;;;;16.58;46.26;98758.41;4939082;28;123402;-74
2024/04/01 00:06:35;;;;;;;;;;;;;;;16.56;46.13;98752.56;4954027;27;98093;-74
2024/04/01 00:09:01;;;;;;;;;;;;;;;16.53;46.27;98748.59;4935578;28;98124;-69
2024/04/01 00:11:28;;;;;;;;;;;;;;;16.51;46.17;98750.09;4951128;27;98578;-70
2024/04/01 00:13:55;;;;;;;;;;;;;;;16.49;46.24;98749.63;4921009;27;98494;-74
2024/04/01 00:16:22;;;;;;;;;;;;;;;16.47;46.18;98743.78;4933939;27;97877;-74
2024/04/01 00:18:49;;;;;;;;;;;;;;;16.43;46.14;98743.66;4933011;27;98141;-69
2024/04/01 00:21:15;;;;;;;;;;;;;;;16.41;46.21;98737.78;4934096;27;99376;-75
2024/04/01 00:23:43;;;;;;;;;;;;;;;16.39;46.30;98731.91;4953686;27;98227;-69
2024/04/01 00:26:09;;;;;;;;;;;;;;;16.35;46.12;98722.88;4940939;28;98674;-69
2024/04/01 00:28:36;;;;;;;;;;;;;;;16.33;46.13;98714.25;4934339;28;101599;-69
2024/04/01 00:31:04;;;;;;;;;;;;;;;16.30;46.18;98695.91;4940683;27;98146;-75
2024/04/01 00:33:31;;;;;;;;;;;;;;;16.27;46.25;98686.53;4954893;28;99971;-69
2024/04/01 00:35:57;;;;;;;;;;;;;;;16.25;46.24;98679.88;4937115;27;100294;-74
2024/04/01 00:38:24;;;;;;;;;;;;;;;16.22;46.12;98678.63;4955244;27;98144;-69
2024/04/01 00:40:50;;;;;;;;;;;;;;;16.19;46.29;98671.97;4938495;27;98421;-69
2024/04/01 00:43:16;;;;;;;;;;;;;;;16.17;46.21;98668.00;4937248;28;98108;-69
2024/04/01 00:45:46;;;;;;;;;;;;;;;16.14;46.30;98661.31;4934874;27;99106;-69
2024/04/01 00:48:15;;;;;;;;;;;;;;;16.10;46.31;98660.44;4952107;28;98222;-74
2024/04/01 00:50:46;;;;;;;;;;;;;;;16.09;46.22;98661.59;4936640;27;98169;-75
2024/04/01 00:53:12;;;;;;;;;;;;;;;16.07;46.36;98661.16;4919622;27;98364;-75
2024/04/01 00:55:41;;;;;;;;;;;;;;;16.06;46.15;98666.91;4920215;27;98129;-75
2024/04/01 00:58:07;;;;;;;;;;;;;;;16.03;46.33;98670.31;4938094;27;98386;-69
2024/04/01 01:00:34;;;;;;;;;;;;;;;16.00;46.19;98671.03;4940546;27;98679;-75
2024/04/01 01:03:01;;;;;;;;;;;;;;;15.98;46.25;98679.53;4935221;27;98626;-69
2024/04/01 01:05:28;;;;;;;;;;;;;;;15.95;46.21;98680.22;4966799;27;99232;-74
2024/04/01 01:07:55;;;;;;;;;;;;;;;15.94;46.26;98684.06;4935032;27;98744;-74
2024/04/01 01:10:22;;;;;;;;;;;;;;;15.90;46.49;98692.13;4935788;28;98195;-69
2024/04/01 01:12:49;;;;;;;;;;;;;;;15.89;46.35;98695.19;4964994;27;99610;-75
2024/04/01 01:15:15;;;;;;;;;;;;;;;15.88;46.35;98696.34;4935708;28;98096;-69
2024/04/01 01:17:41;;;;;;;;;;;;;;;15.85;46.38;98694.28;4935228;28;101619;-74
2024/04/01 01:20:11;;;;;;;;;;;;;;;15.83;46.13;98696.56;4924619;27;98456;-69
2024/04/01 01:22:38;;;;;;;;;;;;;;;15.81;46.14;98688.75;4941071;27;100657;-69
2024/04/01 01:25:09;;;;;;;;;;;;;;;15.78;46.25;98681.28;4951788;28;98315;-74
2024/04/01 01:27:36;;;;;;;;;;;;;;;15.77;46.31;98687.88;4932532;28;98263;-69
2024/04/01 01:30:03;;;;;;;;;;;;;;;15.75;46.46;98673.03;4931204;28;100305;-69
2024/04/01 01:32:30;;;;;;;;;;;;;;;15.74;46.30;98685.06;4932883;28;98546;-75
2024/04/01 01:34:58;;;;;;;;;;;;;;;15.71;46.25;98672.94;4923640;27;98213;-74
2024/04/01 01:37:25;;;;;;;;;;;;;;;15.69;46.42;98658.94;4938247;27;98174;-74
2024/04/01 01:39:51;;;;;;;;;;;;;;;15.67;46.34;98664.69;4953976;27;98345;-69
2024/04/01 01:42:19;;;;;;;;;;;;;;;15.66;46.20;98663.09;4932860;28;98365;-74
2024/04/01 01:44:45;;;;;;;;;;;;;;;15.64;46.20;98661.84;4933933;27;98439;-69
2024/04/01 01:47:11;;;;;;;;;;;;;;;15.61;46.35;98654.41;4929391;28;98779;-69
2024/04/01 01:49:38;;;;;;;;;;;;;;;15.59;46.21;98651.22;4937995;28;99093;-69
2024/04/01 01:52:08;;;;;;;;;;;;;;;15.57;46.48;98638.00;4967584;27;98502;-74
2024/04/01 01:54:34;;;;;;;;;;;;;;;15.57;46.13;98629.84;4945119;28;98289;-76
2024/04/01 01:57:00;;;;;;;;;;;;;;;15.55;46.39;98621.25;4934116;28;98154;-69
2024/04/01 01:59:27;;;;;;;;;;;;;;;15.54;46.46;98616.16;4952222;28;98120;-69
2024/04/01 02:01:53;;;;;;;;;;;;;;;15.52;46.18;98605.63;4916154;27;98252;-69
2024/04/01 02:04:19;;;;;;;;;;;;;;;15.52;46.46;98594.00;4917875;27;99873;-69
2024/04/01 02:06:46;;;;;;;;;;;;;;;15.50;46.09;98588.91;4920149;27;98955;-74
2024/04/01 02:09:12;;;;;;;;;;;;;;;15.47;46.26;98592.31;4955373;28;98224;-69
2024/04/01 02:11:39;;;;;;;;;;;;;;;15.47;46.38;98597.75;4933896;28;98120;-74
2024/04/01 02:14:07;;;;;;;;;;;;;;;15.46;46.37;98599.66;4922750;28;98429;-75
2024/04/01 02:16:33;;;;;;;;;;;;;;;15.44;46.57;98593.81;4939082;28;100701;-69
2024/04/01 02:19:00;;;;;;;;;;;;;;;15.43;46.55;98600.34;4941943;27;98117;-69
2024/04/01 02:21:26;;;;;;;;;;;;;;;15.42;46.48;98615.06;4921934;27;98280;-74
2024/04/01 02:23:53;;;;;;;;;;;;;;;15.40;46.49;98620.03;4919210;27;98069;-75
2024/04/01 02:26:21;;;;;;;;;;;;;;;15.39;46.49;98625.81;4941496;27;98355;-74
2024/04/01 02:28:49;;;;;;;;;;;;;;;15.37;46.45;98618.03;4919896;27;98103;-69
2024/04/01 02:31:17;;;;;;;;;;;;;;;15.37;46.15;98622.66;4944657;27;99140;-75
2024/04/01 02:33:44;;;;;;;;;;;;;;;15.35;46.34;98624.94;4939787;27;98389;-69
2024/04/01 02:36:10;;;;;;;;;;;;;;;15.34;46.55;98624.13;4942414;28;98957;-69
2024/04/01 02:38:37;;;;;;;;;;;;;;;15.33;46.53;98619.06;4924755;27;98174;-74
2024/04/01 02:41:03;;;;;;;;;;;;;;;15.31;46.40;98615.88;4907766;27;103204;-70
2024/04/01 02:43:30;;;;;;;;;;;;;;;15.30;46.39;98622.47;4934044;27;100537;-69
2024/04/01 02:45:56;;;;;;;;;;;;;;;15.27;46.11;98618.50;4952124;27;98425;-69
2024/04/01 02:48:22;;;;;;;;;;;;;;;15.27;46.16;98626.63;4935645;28;99446;-69
2024/04/01 02:50:49;;;;;;;;;;;;;;;15.26;46.53;98624.28;4935810;27;98703;-69
2024/04/01 02:53:16;;;;;;;;;;;;;;;15.25;46.22;98620.78;4950733;28;99075;-75
2024/04/01 02:55:43;;;;;;;;;;;;;;;15.23;46.37;98614.88;4936017;27;101393;-75
2024/04/01 02:58:10;;;;;;;;;;;;;;;15.23;46.57;98623.03;4937874;28;98011;-77
2024/04/01 03:00:36;;;;;;;;;;;;;;;15.22;46.58;98618.75;4958739;27;98406;-70
2024/04/01 03:03:03;;;;;;;;;;;;;;;15.21;46.50;98617.16;4954982;27;98183;-70
2024/04/01 03:05:30;;;;;;;;;;;;;;;15.19;46.21;98620.19;4956953;27;98073;-70
2024/04/01 03:07:56;;;;;;;;;;;;;;;15.18;46.52;98618.63;4925164;27;98282;-70
2024/04/01 03:10:23;;;;;;;;;;;;;;;15.17;46.65;98619.78;4921723;28;98221;-75
2024/04/01 03:12:50;;;;;;;;;;;;;;;15.16;46.53;98618.16;4939096;27;98278;-70
2024/04/01 03:15:17;;;;;;;;;;;;;;;15.17;46.57;98610.84;4916936;28;98232;-70
2024/04/01 03:17:44;;;;;;;;;;;;;;;15.15;46.68;98613.09;4949441;27;98392;-76
2024/04/01 03:20:11;;;;;;;;;;;;;;;15.15;46.33;98607.66;4934006;28;98032;-70
2024/04/01 03:22:37;;;;;;;;;;;;;;;15.14;46.33;98608.81;4944016;27;98483;-70
2024/04/01 03:25:05;;;;;;;;;;;;;;;15.12;46.58;98606.41;4922665;27;98151;-76
2024/04/01 03:27:32;;;;;;;;;;;;;;;15.11;46.64;98598.63;4940535;27;98247;-70
2024/04/01 03:30:01;;;;;;;;;;;;;;;15.09;46.65;98585.41;4941547;27;116930;-75
2024/04/01 03:32:27;;;;;;;;;;;;;;;15.09;46.64;98584.59;4922582;27;98622;-75
2024/04/01 03:34:53;;;;;;;;;;;;;;;15.09;46.36;98581.88;4919296;27;98268;-70
2024/04/01 03:37:20;;;;;;;;;;;;;;;15.06;46.57;98575.25;4938227;28;98303;-75
2024/04/01 03:39:47;;;;;;;;;;;;;;;15.07;46.29;98557.03;4939788;27;100266;-69
2024/04/01 03:42:13;;;;;;;;;;;;;;;15.04;46.46;98566.63;4936407;28;99729;-70
2024/04/01 03:44:40;;;;;;;;;;;;;;;15.04;46.63;98561.22;4936087;27;99304;-75
2024/04/01 03:47:07;;;;;;;;;;;;;;;15.03;46.39;98556.13;4940529;27;98448;-69
2024/04/01 03:49:34;;;;;;;;;;;;;;;15.01;46.48;98545.59;4942835;28;98866;-76
2024/04/01 03:52:01;;;;;;;;;;;;;;;15.01;46.57;98539.41;4938875;27;98974;-69
2024/04/01 03:54:28;;;;;;;;;;;;;;;15.00;46.54;98538.63;4937658;28;98082;-76
2024/04/01 03:56:55;;;;;;;;;;;;;;;14.99;46.39;98531.63;4919824;27;98116;-75
2024/04/01 03:59:22;;;;;;;;;;;;;;;14.98;46.33;98524.63;4937826;28;100678;-77
2024/04/01 04:01:48;;;;;;;;;;;;;;;14.97;46.75;98521.13;4954627;27;98154;-75
2024/04/01 04:04:15;;;;;;;;;;;;;;;14.96;46.32;98518.72;4938959;27;98634;-75
2024/04/01 04:06:41;;;;;;;;;;;;;;;14.94;46.57;98521.78;4938281;27;98083;-70
2024/04/01 04:09:17;;;;;;;;;;;;;;;14.93;46.36;98514.81;4933429;27;99928;-76
2024/04/01 04:11:50;;;;;;;;;;;;;;;14.92;46.71;98499.63;4941528;27;98489;-75
2024/04/01 04:14:20;;;;;;;;;;;;;;;14.91;46.47;98503.47;4969045;27;98306;-69
2024/04/01 04:16:47;;;;;;;;;;;;;;;14.90;46.25;98495.69;4922423;27;98910;-75
2024/04/01 04:19:17;;;;;;;;;;;;;;;14.89;46.46;98484.03;4934595;27;98125;-74
2024/04/01 04:21:43;;;;;;;;;;;;;;;14.88;46.22;98482.47;4934442;27;98248;-69
2024/04/01 04:24:11;;;;;;;;;;;;;;;14.87;46.31;98478.19;4923071;27;99264;-75
2024/04/01 04:26:37;;;;;;;;;;;;;;;14.87;46.21;98485.53;4938333;27;99663;-69
2024/04/01 04:29:04;;;;;;;;;;;;;;;14.86;46.65;98497.53;4939414;28;98036;-75
2024/04/01 04:31:31;;;;;;;;;;;;;;;14.86;46.48;98503.72;4952281;27;98993;-69
2024/04/01 04:33:58;;;;;;;;;;;;;;;14.88;46.37;98516.94;4939374;27;98537;-75
2024/04/01 04:36:26;;;;;;;;;;;;;;;14.87;46.30;98524.28;4934412;27;98201;-75
2024/04/01 04:38:55;;;;;;;;;;;;;;;14.86;46.73;98519.22;4931557;27;98579;-75
2024/04/01 04:41:22;;;;;;;;;;;;;;;14.86;46.27;98508.38;4920953;27;99163;-69
2024/04/01 04:43:48;;;;;;;;;;;;;;;14.85;46.73;98498.63;4928222;27;98411;-75
2024/04/01 04:46:15;;;;;;;;;;;;;;;14.85;46.36;98493.22;4932993;27;98172;-75
2024/04/01 04:48:43;;;;;;;;;;;;;;;14.84;46.51;98497.06;4953599;27;100669;-74
2024/04/01 04:51:10;;;;;;;;;;;;;;;14.84;46.39;98497.84;4942529;27;98005;-74
2024/04/01 04:53:36;;;;;;;;;;;;;;;14.85;46.69;98501.34;4942478;27;98517;-74
2024/04/01 04:56:06;;;;;;;;;;;;;;;14.85;46.34;98512.97;4939481;27;98314;-69
2024/04/01 04:58:32;;;;;;;;;;;;;;;14.87;46.37;98496.38;4955009;27;99982;-69
2024/04/01 05:01:05;;;;;;;;;;;;;;;14.87;46.52;98499.88;4921112;27;98109;-75
2024/04/01 05:03:34;;;;;;;;;;;;;;;14.89;46.41;98502.25;4918839;27;98452;-69
2024/04/01 05:06:01;;;;;;;;;;;;;;;14.89;46.42;98503.03;4938267;27;98248;-69
2024/04/01 05:08:27;;;;;;;;;;;;;;;14.91;46.25;98489.13;4956980;27;98474;-74
2024/04/01 05:10:55;;;;;;;;;;;;;;;14.91;46.41;98476.38;4923767;27;98427;-68
2024/04/01 05:13:21;;;;;;;;;;;;;;;14.93;46.53;98465.97;4936570;27;98450;-69
2024/04/01 05:15:47;;;;;;;;;;;;;;;14.95;46.23;98469.13;4939452;27;98545;-69
2024/04/01 05:18:14;;;;;;;;;;;;;;;14.97;46.62;98480.44;4916700;27;98047;-69
2024/04/01 05:20:40;;;;;;;;;;;;;;;15.00;46.51;98470.78;4953745;28;98122;-69
2024/04/01 05:23:07;;;;;;;;;;;;;;;15.02;46.34;98473.19;4939600;28;99693;-74
2024/04/01 05:25:33;;;;;;;;;;;;;;;15.04;46.53;98484.47;4960320;27;98290;-75
2024/04/01 05:27:59;;;;;;;;;;;;;;;15.06;46.46;98480.28;4955439;27;100858;-69
2024/04/01 05:30:26;;;;;;;;;;;;;;;15.09;46.49;98479.59;4939418;28;99841;-69
2024/04/01 05:32:52;;;;;;;;;;;;;;;15.12;46.43;98467.25;4915748;28;99722;-69
2024/04/01 05:35:19;;;;;;;;;;;;;;;15.16;46.44;98476.28;4933114;27;98222;-69
2024/04/01 05:37:46;;;;;;;;;;;;;;;15.20;46.38;98501.59;4960388;28;98177;-75
2024/04/01 05:40:14;;;;;;;;;;;;;;;15.26;46.18;98504.84;4935729;27;98737;-74
2024/04/01 05:42:41;;;;;;;;;;;;;;;15.31;46.49;98512.75;4938882;28;98128;-68
2024/04/01 05:45:09;;;;;;;;;;;;;;;15.33;46.11;98513.22;4937498;27;98243;-74
2024/04/01 05:47:36;;;;;;;;;;;;;;;15.34;46.39;98502.00;4967381;27;99374;-76
2024/04/01 05:50:04;;;;;;;;;;;;;;;15.35;46.41;98495.41;4916691;27;99630;-75
2024/04/01 05:52:30;;;;;;;;;;;;;;;15.36;46.17;98510.56;4938523;28;98828;-69
2024/04/01 05:54:57;;;;;;;;;;;;;;;15.38;46.25;98516.44;4947078;27;99495;-75
2024/04/01 05:57:23;;;;;;;;;;;;;;;15.38;46.22;98515.66;4935487;28;100729;-76
2024/04/01 05:59:51;;;;;;;;;;;;;;;15.39;46.15;98523.44;4934369;27;100109;-75
2024/04/01 06:02:18;;;;;;;;;;;;;;;15.42;46.42;98538.25;4939759;27;98208;-74
2024/04/01 06:04:44;;;;;;;;;;;;;;;15.43;46.40;98548.78;4932626;27;98653;-68
2024/04/01 06:07:10;;;;;;;;;;;;;;;15.44;46.32;98544.13;4945734;28;98541;-75
2024/04/01 06:09:37;;;;;;;;;;;;;;;15.44;46.17;98538.69;4950772;28;98912;-74
2024/04/01 06:12:05;;;;;;;;;;;;;;;15.44;46.12;98522.41;4943247;28;98332;-75
2024/04/01 06:14:32;;;;;;;;;;;;;;;15.45;46.41;98515.88;4950876;28;100035;-74
2024/04/01 06:16:58;;;;;;;;;;;;;;;15.48;46.41;98504.28;4937737;27;98530;-69
2024/04/01 06:19:24;;;;;;;;;;;;;;;15.51;46.37;98494.66;4940855;27;98240;-69
2024/04/01 06:21:50;;;;;;;;;;;;;;;15.54;46.34;98477.69;4936959;27;98261;-69
2024/04/01 06:24:18;;;;;;;;;;;;;;;15.58;46.16;98476.66;4939498;27;99025;-75
2024/04/01 06:26:44;;;;;;;;;;;;;;;15.65;46.39;98485.00;4936074;27;98430;-75
2024/04/01 06:29:11;;;;;;;;;;;;;;;15.69;46.13;98482.41;4940382;27;99736;-75
2024/04/01 06:31:40;;;;;;;;;;;;;;;15.73;46.15;98469.69;4934773;27;98647;-75
2024/04/01 06:34:06;;;;;;;;;;;;;;;15.77;46.14;98470.56;4941102;27;98043;-73
2024/04/01 06:36:34;;;;;;;;;;;;;;;15.84;46.27;98484.34;4938855;28;98654;-69
2024/04/01 06:39:03;;;;;;;;;;;;;;;15.93;46.14;98484.16;4948546;27;98198;-70
2024/04/01 06:41:29;;;;;;;;;;;;;;;15.98;46.11;98493.97;4938485;27;98240;-69
2024/04/01 06:43:56;;;;;;;;;;;;;;;16.01;45.97;98496.78;4940926;28;98516;-69
2024/04/01 06:46:24;;;;;;;;;;;;;;;16.05;46.04;98486.00;4937283;28;98065;-75
2024/04/01 06:48:51;;;;;;;;;;;;;;;16.06;46.19;98487.56;4934535;27;98247;-75
2024/04/01 06:51:17;;;;;;;;;;;;;;;16.06;46.19;98485.63;4934167;27;100262;-69
2024/04/01 06:53:43;;;;;;;;;;;;;;;16.08;46.15;98477.94;4921587;27;104918;-70
2024/04/01 06:56:12;;;;;;;;;;;;;;;16.10;46.26;98485.72;4934816;27;98638;-76
2024/04/01 06:58:39;;;;;;;;;;;;;;;16.11;46.24;98479.97;4950210;27;100101;-75
2024/04/01 07:01:06;;;;;;;;;;;;;;;16.13;46.25;98457.84;4954492;27;98263;-69
2024/04/01 07:03:33;;;;;;;;;;;;;;;16.18;46.21;98463.00;4953540;27;101973;-75
2024/04/01 07:06:00;;;;;;;;;;;;;;;16.19;46.08;98456.44;4963887;27;100582;-69
2024/04/01 07:08:28;;;;;;;;;;;;;;;16.22;46.18;98453.00;4937379;28;99466;-75
2024/04/01 07:10:55;;;;;;;;;;;;;;;16.25;46.26;98460.47;4932205;27;98445;-69
2024/04/01 07:13:22;;;;;;;;;;;;;;;16.29;46.29;98446.97;4936867;27;98292;-75
2024/04/01 07:15:48;;;;;;;;;;;;;;;16.33;46.09;98436.97;4951151;27;98850;-69
2024/04/01 07:18:15;;;;;;;;;;;;;;;16.37;46.09;98422.28;4939070;27;98773;-69
2024/04/01 07:20:41;;;;;;;;;;;;;;;16.41;46.15;98417.72;4921978;27;98079;-74
2024/04/01 07:23:08;;;;;;;;;;;;;;;16.46;46.04;98413.94;4933547;27;99331;-69
2024/04/01 07:25:35;;;;;;;;;;;;;;;16.51;45.98;98413.69;4917238;27;98894;-71
2024/04/01 07:28:01;;;;;;;;;;;;;;;16.57;45.98;98389.69;4932306;27;100636;-69
2024/04/01 07:30:30;;;;;;;;;;;;;;;16.68;45.87;98388.78;4934047;27;98178;-75
2024/04/01 07:32:56;;;;;;;;;;;;;;;16.78;45.92;98395.63;4947948;27;99063;-75
2024/04/01 07:35:23;;;;;;;;;;;;;;;16.90;45.69;98395.47;4924259;27;99191;-75
2024/04/01 07:37:49;;;;;;;;;;;;;;;17.06;45.57;98387.22;4940075;27;99570;-75
2024/04/01 07:40:16;;;;;;;;;;;;;;;17.21;45.49;98382.03;4932469;27;98401;-74
2024/04/01 07:42:45;;;;;;;;;;;;;;;17.34;45.55;98381.50;4938084;27;98257;-70
2024/04/01 07:45:12;;;;;;;;;;;;;;;17.47;45.48;98379.41;4916503;27;98404;-70
2024/04/01 07:47:40;;;;;;;;;;;;;;;17.63;45.40;98380.06;4930397;27;98066;-76
2024/04/01 07:50:09;;;;;;;;;;;;;;;17.81;45.30;98393.22;4948530;28;98469;-70
2024/04/01 07:52:35;;;;;;;;;;;;;;;17.95;45.30;98396.16;4938239;28;99468;-70
2024/04/01 07:55:02;;;;;;;;;;;;;;;18.14;45.12;98396.06;4933317;28;98385;-75
2024/04/01 07:57:32;;;;;;;;;;;;;;;18.28;45.33;98405.63;4940093;27;98354;-70
2024/04/01 07:59:59;;;;;;;;;;;;;;;18.35;45.34;98397.50;4937112;27;97996;-75
2024/04/01 08:02:25;;;;;;;;;;;;;;;18.44;45.12;98391.81;4952952;27;98300;-70
2024/04/01 08:04:52;;;;;;;;;;;;;;;18.49;45.27;98383.28;4923181;27;98294;-70
2024/04/01 08:07:23;;;;;;;;;;;;;;;18.54;45.37;98372.06;4936979;27;98481;-75
2024/04/01 08:09:50;;;;;;;;;;;;;;;18.62;45.31;98376.44;4916065;27;99021;-75
2024/04/01 08:12:17;;;;;;;;;;;;;;;18.71;45.35;98365.28;4938632;28;98697;-75
2024/04/01 08:14:44;;;;;;;;;;;;;;;18.78;45.28;98365.34;4941184;27;99541;-74
2024/04/01 08:17:10;;;;;;;;;;;;;;;18.82;45.37;98360.72;4929977;27;98651;-75
2024/04/01 08:19:37;;;;;;;;;;;;;;;18.88;45.29;98351.84;4937271;27;99727;-70
2024/04/01 08:22:03;;;;;;;;;;;;;;;18.98;45.35;98353.13;4923034;28;98517;-70
2024/04/01 08:24:31;;;;;;;;;;;;;;;19.09;45.23;98353.22;4917027;27;99849;-75
2024/04/01 08:26:57;;;;;;;;;;;;;;;19.17;45.30;98363.06;4921769;27;98151;-70
2024/04/01 08:29:24;;;;;;;;;;;;;;;19.29;45.29;98362.78;4950989;28;101300;-70
2024/04/01 08:31:52;;;;;;;;;;;;;;;19.43;45.07;98369.56;4932687;27;98218;-75
2024/04/01 08:34:19;;;;;;;;;;;;;;;19.56;45.11;98365.38;4951789;27;98214;-70
2024/04/01 08:36:45;;;;;;;;;;;;;;;19.68;45.03;98367.84;4931591;27;98884;-70
2024/04/01 08:39:11;;;;;;;;;;;;;;;19.82;45.02;98364.44;4945847;27;100299;-70
2024/04/01 08:41:43;;;;;;;;;;;;;;;19.95;44.90;98371.16;4951270;27;98225;-75
2024/04/01 08:44:13;;;;;;;;;;;;;;;20.00;44.95;98361.81;4952020;27;98371;-70
2024/04/01 08:46:44;;;;;;;;;;;;;;;20.05;45.06;98356.03;4932429;27;98716;-70
2024/04/01 08:49:12;;;;;;;;;;;;;;;20.13;44.95;98359.59;4931275;27;98041;-75
2024/04/01 08:51:39;;;;;;;;;;;;;;;20.18;44.96;98342.81;4932881;27;98235;-70
2024/04/01 08:54:09;;;;;;;;;;;;;;;20.17;45.17;98339.28;4933595;27;98637;-70
2024/04/01 08:56:41;;;;;;;;;;;;;;;20.23;45.07;98335.00;4920883;27;98573;-75
2024/04/01 08:59:09;;;;;;;;;;;;;;;20.40;45.00;98333.56;4929827;27;98241;-75
2024/04/01 09:01:35;;;;;;;;;;;;;;;20.78;44.64;98317.69;4937200;27;98857;-70
2024/04/01 09:04:02;;;;;;;;;;;;;;;21.38;44.21;98303.34;4934260;27;99903;-70
2024/04/01 09:06:29;;;;;;;;;;;;;;;22.34;43.42;98296.94;4937889;27;98843;-70
2024/04/01 09:08:56;;;;;;;;;;;;;;;22.71;43.46;98290.88;4932064;27;98679;-71
2024/04/01 09:11:29;;;;;;;;;;;;;;;22.92;43.54;98290.00;4951089;27;98230;-75
2024/04/01 09:13:55;;;;;;;;;;;;;;;23.00;43.56;98297.00;4933858;27;99563;-75
2024/04/01 09:16:23;;;;;;;;;;;;;;;23.05;43.95;98290.31;4950261;27;98537;-75
2024/04/01 09:18:52;;;;;;;;;;;;;;;23.32;43.60;98276.78;4933419;27;99087;-71
2024/04/01 09:21:20;;;;;;;;;;;;;;;23.37;43.64;98253.56;4937994;28;98331;-75
2024/04/01 09:23:46;;;;;;;;;;;;;;;23.25;44.22;98252.88;4944768;27;98902;-75
2024/04/01 09:26:14;;;;;;;;;;;;;;;23.14;44.54;98265.91;4951128;27;98383;-75
2024/04/01 09:28:42;;;;;;;;;;;;;;;23.05;44.50;98253.81;4954658;27;98094;-75
2024/04/01 09:31:11;;;;;;;;;;;;;;;23.09;44.78;98265.56;4938835;28;98517;-75
2024/04/01 09:33:37;;;;;;;;;;;;;;;23.35;44.29;98267.72;4939164;27;99580;-75
2024/04/01 09:36:04;;;;;;;;;;;;;;;23.83;43.91;98257.88;4933663;27;101338;-71
2024/04/01 09:38:34;;;;;;;;;;;;;;;24.04;43.89;98251.34;4947965;28;98395;-75
2024/04/01 09:41:00;;;;;;;;;;;;;;;24.08;43.97;98255.63;4933270;27;98543;-70
2024/04/01 09:43:28;;;;;;;;;;;;;;;24.06;44.26;98241.50;4946598;27;98804;-71
2024/04/01 09:45:56;;;;;;;;;;;;;;;24.09;44.35;98229.69;4936005;27;98426;-75
2024/04/01 09:48:25;;;;;;;;;;;;;;;24.47;43.90;98227.63;4940028;27;98287;-71
2024/04/01 09:51:09;;;;;;;;;;;;;;;25.46;42.85;98229.28;4941722;27;98072;-71
2024/04/01 09:53:36;;;;;;;;;;;;;;;25.76;42.86;98244.91;4922245;27;98860;-71
2024/04/01 09:56:13;;;;;;;;;;;;;;;25.77;43.15;98259.47;4955928;27;98379;-71
2024/04/01 09:59:16;;;;;;;;;;;;;;;25.70;43.56;98263.13;4955201;27;98065;-71
2024/04/01 10:01:51;;;;;;;;;;;;;;;25.71;43.75;98276.53;4950433;27;98038;-75
2024/04/01 10:04:37;;;;;;;;;;;;;;;25.59;43.89;98279.91;4938260;27;100440;-71
2024/04/01 10:07:24;;;;;;;;;;;;;;;25.41;44.04;98271.13;4952488;27;98695;-72
2024/04/01 10:10:03;;;;;;;;;;;;;;;25.20;44.23;98275.81;4952890;27;98209;-71
2024/04/01 10:12:53;;;;;;;;;;;;;;;24.98;44.77;98278.06;4963120;27;99150;-75
2024/04/01 10:15:43;;;;;;;;;;;;;;;24.79;44.70;98280.72;4932909;27;99824;-74
2024/04/01 10:18:47;;;;;;;;;;;;;;;24.60;45.04;98280.19;4940667;27;99219;-73
2024/04/01 10:21:22;;;;;;;;;;;;;;;24.38;45.26;98278.88;4953923;27;99202;-71
2024/04/01 10:24:08;;;;;;;;;;;;;;;24.19;45.25;98294.81;4951374;27;98201;-74
2024/04/01 10:27:14;;;;;;;;;;;;;;;24.05;45.18;98294.16;4944473;27;100547;-75
2024/04/01 10:29:53;;;;;;;;;;;;;;;23.87;45.47;98294.38;4948079;27;98908;-74
2024/04/01 10:32:39;;;;;;;;;;;;;;;23.80;45.34;98299.94;4950183;27;99444;-72
2024/04/01 10:35:30;;;;;;;;;;;;;;;23.74;45.27;98305.13;4955269;27;98371;-74
2024/04/01 10:38:23;;;;;;;;;;;;;;;23.64;45.67;98294.94;4939646;27;98462;-73
2024/04/01 10:40:49;;;;;;;;;;;;;;;23.52;45.53;98298.97;4966637;27;98488;-70
2024/04/01 10:43:31;;;;;;;;;;;;;;;23.45;45.44;98282.53;4953854;27;98538;-74
2024/04/01 10:46:26;;;;;;;;;;;;;;;23.35;45.70;98295.19;4966571;27;98255;-74
2024/04/01 10:49:27;;;;;;;;;;;;;;;23.21;45.87;98309.03;4954816;27;98338;-74
2024/04/01 10:52:12;;;;;;;;;;;;;;;23.07;45.55;98323.66;4967873;27;98457;-70
2024/04/01 10:55:00;;;;;;;;;;;;;;;23.03;45.70;98329.19;4954763;27;98012;-70
2024/04/01 10:57:35;;;;;;;;;;;;;;;23.06;45.66;98324.06;4954473;28;98223;-70
2024/04/01 11:00:31;;;;;;;;;;;;;;;23.03;45.86;98331.16;4938322;27;98105;-74
2024/04/01 11:03:17;;;;;;;;;;;;;;;23.01;45.81;98334.28;4954453;27;99479;-70
2024/04/01 11:06:05;;;;;;;;;;;;;;;23.05;45.75;98311.50;4942111;28;99706;-74
2024/04/01 11:08:40;;;;;;;;;;;;;;;23.08;45.50;98310.72;4955010;27;98239;-71
2024/04/01 11:11:24;;;;;;;;;;;;;;;23.09;45.51;98313.03;4922112;27;101354;-70
2024/04/01 11:13:51;;;;;;;;;;;;;;;23.09;45.29;98304.81;4952865;27;99904;-70
2024/04/01 11:16:18;;;;;;;;;;;;;;;23.07;45.64;98314.63;4919545;27;98161;-70
2024/04/01 11:18:59;;;;;;;;;;;;;;;23.00;45.83;98312.72;4964950;27;98191;-74
2024/04/01 11:21:40;;;;;;;;;;;;;;;22.88;45.88;98316.69;4955506;27;98209;-74
2024/04/01 11:24:43;;;;;;;;;;;;;;;22.82;45.82;98309.25;4955822;27;98306;-74
2024/04/01 11:27:28;;;;;;;;;;;;;;;22.73;46.00;98313.22;4911926;27;98206;-70
2024/04/01 11:30:20;;;;;;;;;;;;;;;22.63;45.96;98313.25;4952015;28;97945;-74
2024/04/01 11:32:46;;;;;;;;;;;;;;;22.49;45.91;98312.16;4965748;27;99430;-74
2024/04/01 11:35:14;;;;;;;;;;;;;;;22.44;46.07;98326.31;4920999;27;98490;-70
2024/04/01 11:37:51;;;;;;;;;;;;;;;22.39;46.04;98326.69;4932353;28;98744;-70
2024/04/01 11:40:21;;;;;;;;;;;;;;;22.36;46.06;98324.75;4951029;27;98106;-74
2024/04/01 11:42:53;;;;;;;;;;;;;;;22.38;45.86;98316.91;4920136;28;98511;-71
2024/04/01 11:45:20;;;;;;;;;;;;;;;22.39;46.02;98320.44;4921955;27;98014;-74
2024/04/01 11:47:46;;;;;;;;;;;;;;;22.35;46.06;98323.19;4932793;27;98891;-74
2024/04/01 11:50:16;;;;;;;;;;;;;;;22.31;45.96;98330.66;4932626;27;98476;-74
2024/04/01 11:52:43;;;;;;;;;;;;;;;22.29;46.11;98341.25;4966845;27;98256;-70
2024/04/01 11:55:12;;;;;;;;;;;;;;;22.25;45.87;98343.22;4951536;27;99536;-70
2024/04/01 11:57:39;;;;;;;;;;;;;;;22.25;46.04;98333.03;4936189;27;99763;-74
2024/04/01 12:00:09;;;;;;;;;;;;;;;22.23;46.07;98340.84;4933337;27;98193;-74
2024/04/01 12:02:36;;;;;;;;;;;;;;;22.21;45.91;98345.97;4936998;27;98346;-70
2024/04/01 12:05:05;;;;;;;;;;;;;;;22.18;45.98;98330.28;4937378;27;98971;-70
2024/04/01 12:07:36;;;;;;;;;;;;;;;22.17;45.99;98347.94;4931148;27;99793;-74
2024/04/01 12:10:06;;;;;;;;;;;;;;;22.16;46.13;98343.59;4920181;27;99612;-69
2024/04/01 12:12:37;;;;;;;;;;;;;;;22.14;45.96;98343.25;4932466;27;98356;-74
2024/04/01 12:15:04;;;;;;;;;;;;;;;22.13;46.07;98341.69;4933380;27;98838;-74
2024/04/01 12:17:31;;;;;;;;;;;;;;;22.09;46.18;98342.84;4916058;27;99942;-70
2024/04/01 12:19:58;;;;;;;;;;;;;;;22.06;46.23;98347.16;4938914;27;100600;-70
2024/04/01 12:22:27;;;;;;;;;;;;;;;22.06;46.04;98339.69;4929906;27;98177;-71
2024/04/01 12:24:56;;;;;;;;;;;;;;;22.07;46.17;98335.00;4951476;27;98520;-74
2024/04/01 12:27:23;;;;;;;;;;;;;;;22.09;45.88;98340.09;4949116;27;98258;-74
2024/04/01 12:29:51;;;;;;;;;;;;;;;22.11;45.95;98351.44;4922586;28;98493;-74
2024/04/01 12:32:20;;;;;;;;;;;;;;;22.14;45.93;98347.94;4915197;27;99624;-74
2024/04/01 12:34:46;;;;;;;;;;;;;;;22.19;46.03;98362.03;4920370;28;98116;-70
2024/04/01 12:37:12;;;;;;;;;;;;;;;22.20;45.79;98360.06;4915885;27;98221;-74
2024/04/01 12:39:43;;;;;;;;;;;;;;;22.20;45.95;98354.56;4933904;27;98229;-70
2024/04/01 12:42:10;;;;;;;;;;;;;;;22.23;45.88;98343.59;4934494;27;98157;-74
2024/04/01 12:44:37;;;;;;;;;;;;;;;22.30;46.02;98342.81;4932707;27;98223;-71
2024/04/01 12:47:06;;;;;;;;;;;;;;;22.42;45.79;98358.06;4935399;27;98359;-71
2024/04/01 12:49:33;;;;;;;;;;;;;;;22.51;45.60;98350.94;4932060;27;99926;-71
2024/04/01 12:52:00;;;;;;;;;;;;;;;22.60;45.68;98361.53;4916814;27;98284;-70
2024/04/01 12:54:49;;;;;;;;;;;;;;;22.71;45.60;98372.44;4932772;27;98847;-70
2024/04/01 12:57:31;;;;;;;;;;;;;;;22.84;45.54;98386.53;4951446;27;98196;-70